Time;durP1;ratioP1;P1;durP2;ratioP2;P2;SDS_P1;SDS_P2;PMS_P1;PMS_P2;Temp;Humidity;BMP_temperature;BMP_pressure;BME280_temperature;BME280_humidity;BME280_pressure;Samples;Min_cycle;Max_cycle;Signal;HPM_P1;HPM_P2
2022/04/19 00:00:05;;;;;;;3.20;1.70;;;;;;;6.43;70.63;95998.91;4994402;28;20203;-66
2022/04/19 00:02:32;;;;;;;2.13;1.30;;;;;;;6.20;70.03;95998.66;4993867;28;20217;-66
2022/04/19 00:04:59;;;;;;;2.07;1.40;;;;;;;6.08;70.71;95999.09;4994849;28;20230;-66
2022/04/19 00:07:25;;;;;;;2.50;1.50;;;;;;;6.14;71.21;95998.47;4994558;28;20307;-67
2022/04/19 00:09:52;;;;;;;2.83;2.03;;;;;;;6.06;71.11;95998.44;4994466;28;20213;-66
2022/04/19 00:12:19;;;;;;;2.47;1.60;;;;;;;6.14;71.27;95988.81;4993931;28;20265;-66
2022/04/19 00:14:47;;;;;;;3.23;1.63;;;;;;;6.09;70.71;95992.88;4994324;28;20313;-67
2022/04/19 00:17:16;;;;;;;2.77;1.43;;;;;;;6.15;71.18;95985.22;4993861;28;20237;-66
2022/04/19 00:19:42;;;;;;;3.40;1.37;;;;;;;5.51;73.54;95988.38;4994503;28;20246;-66
2022/04/19 00:22:09;;;;;;;2.93;1.60;;;;;;;5.48;74.64;95999.16;4994795;28;20672;-66
2022/04/19 00:24:35;;;;;;;3.13;1.53;;;;;;;5.80;73.67;95978.50;4993824;28;20227;-66
2022/04/19 00:27:02;;;;;;;2.57;1.40;;;;;;;5.70;73.50;95975.13;4995515;28;20557;-67
2022/04/19 00:29:28;;;;;;;1.70;1.20;;;;;;;5.67;72.89;95976.25;4994945;28;20206;-67
2022/04/19 00:31:55;;;;;;;4.13;1.63;;;;;;;5.78;73.14;95976.03;4994519;28;20218;-66
2022/04/19 00:34:23;;;;;;;2.53;1.40;;;;;;;6.11;72.99;95968.22;4994628;28;20206;-66
2022/04/19 00:36:49;;;;;;;1.73;1.23;;;;;;;5.64;73.77;95962.69;4996067;28;20584;-67
2022/04/19 00:39:16;;;;;;;3.30;2.00;;;;;;;5.66;73.82;95965.97;4994120;28;20231;-66
2022/04/19 00:41:43;;;;;;;2.27;1.40;;;;;;;5.89;72.80;95951.41;4994376;28;20694;-67
2022/04/19 00:44:10;;;;;;;2.37;1.20;;;;;;;5.77;73.22;95950.06;4994139;28;20313;-67
2022/04/19 00:46:36;;;;;;;3.57;1.70;;;;;;;5.96;72.77;95955.03;4994231;28;20729;-67
2022/04/19 00:49:03;;;;;;;2.57;1.40;;;;;;;5.85;71.23;95944.88;4994272;28;21272;-66
2022/04/19 00:51:32;;;;;;;2.40;1.50;;;;;;;5.97;71.47;95943.63;4994693;28;20229;-66
2022/04/19 00:53:58;;;;;;;3.80;1.40;;;;;;;5.85;71.74;95937.03;4993646;28;20705;-67
2022/04/19 00:56:25;;;;;;;3.30;1.53;;;;;;;5.83;71.16;95937.19;4994123;28;20213;-67
2022/04/19 00:58:52;;;;;;;4.20;2.07;;;;;;;5.94;72.24;95939.50;4992371;28;20241;-66
2022/04/19 01:01:18;;;;;;;4.73;2.10;;;;;;;5.84;71.81;95938.00;4994010;28;20209;-67
2022/04/19 01:03:45;;;;;;;3.53;1.63;;;;;;;5.78;70.20;95934.22;4993092;28;20222;-66
2022/04/19 01:06:11;;;;;;;2.53;1.40;;;;;;;5.66;70.76;95934.59;4994256;28;20218;-66
2022/04/19 01:08:40;;;;;;;4.27;1.97;;;;;;;5.80;71.89;95931.44;4994288;28;20230;-67
2022/04/19 01:13:53;;;;;;;3.30;1.20;;;;;;;5.44;72.20;95932.50;4993395;28;20209;-66
2022/04/19 01:16:19;;;;;;;2.27;1.53;;;;;;;5.61;72.26;95926.38;4994045;28;21189;-66
2022/04/19 01:18:47;;;;;;;3.00;2.03;;;;;;;5.58;73.28;95932.75;4993501;28;20318;-66
2022/04/19 01:21:14;;;;;;;3.00;1.87;;;;;;;5.51;73.53;95920.44;4993646;28;20207;-67
2022/04/19 01:23:41;;;;;;;4.37;1.77;;;;;;;5.76;73.52;95917.03;4993038;28;20245;-67
2022/04/19 01:26:08;;;;;;;2.13;1.67;;;;;;;5.61;73.74;95921.16;4994179;28;20207;-66
2022/04/19 01:28:35;;;;;;;2.80;1.70;;;;;;;5.70;72.87;95909.78;4994085;28;20222;-67
2022/04/19 01:31:01;;;;;;;2.47;1.83;;;;;;;5.71;73.41;95917.47;4994149;28;20214;-66
2022/04/19 01:33:28;;;;;;;3.67;1.90;;;;;;;5.17;73.61;95909.13;4993238;28;20215;-66
2022/04/19 01:35:54;;;;;;;2.17;1.40;;;;;;;5.30;72.26;95917.38;4997102;28;20202;-67
2022/04/19 01:38:21;;;;;;;2.93;1.50;;;;;;;5.43;71.56;95911.75;4997448;28;20726;-67
2022/04/19 01:40:49;;;;;;;7.43;2.10;;;;;;;5.52;72.95;95916.88;4996456;28;20578;-66
2022/04/19 01:43:15;;;;;;;3.63;1.87;;;;;;;5.28;73.12;95908.84;4996097;28;20215;-66
2022/04/19 01:45:42;;;;;;;4.23;1.97;;;;;;;5.40;72.07;95907.66;4997925;28;20214;-67
2022/04/19 01:48:08;;;;;;;2.97;1.70;;;;;;;5.37;71.77;95902.72;4997744;28;20226;-66
2022/04/19 01:50:38;;;;;;;3.10;1.70;;;;;;;5.48;70.97;95898.06;4997201;28;20214;-66
2022/04/19 01:53:05;;;;;;;3.47;1.57;;;;;;;5.23;72.87;95895.47;4996542;28;20210;-67
2022/04/19 01:55:31;;;;;;;5.20;1.87;;;;;;;5.23;72.58;95892.84;4997919;28;20202;-66
2022/04/19 01:58:00;;;;;;;2.20;1.90;;;;;;;5.43;73.08;95883.81;4993975;28;20234;-66
2022/04/19 02:00:29;;;;;;;2.17;1.57;;;;;;;5.31;73.15;95890.28;4997111;28;20210;-66
2022/04/19 02:02:57;;;;;;;2.73;1.80;;;;;;;5.29;74.00;95888.81;4995877;28;20206;-66
2022/04/19 02:05:24;;;;;;;2.80;1.60;;;;;;;5.42;72.86;95883.97;4996717;28;20299;-66
2022/04/19 02:07:51;;;;;;;3.17;1.80;;;;;;;5.36;72.59;95879.38;4996370;28;20223;-67
2022/04/19 02:10:19;;;;;;;3.13;1.60;;;;;;;5.43;72.02;95881.22;4996209;28;20453;-66
2022/04/19 02:12:46;;;;;;;4.00;1.90;;;;;;;5.29;73.08;95879.16;4995515;28;20574;-67
2022/04/19 02:15:15;;;;;;;5.13;1.83;;;;;;;5.45;73.28;95874.06;4996658;28;20577;-66
2022/04/19 02:17:46;;;;;;;2.60;1.63;;;;;;;5.44;73.28;95868.00;4996100;28;20235;-67
2022/04/19 02:20:14;;;;;;;6.03;2.30;;;;;;;5.28;73.58;95881.94;4995889;28;20214;-66
2022/04/19 02:22:41;;;;;;;6.40;1.70;;;;;;;5.27;72.98;95878.50;4995569;28;20304;-66
2022/04/19 02:25:11;;;;;;;3.50;1.87;;;;;;;5.21;72.90;95875.69;4992503;28;20326;-67
2022/04/19 02:27:39;;;;;;;2.97;1.50;;;;;;;5.22;72.48;95878.16;4996090;28;20233;-66
2022/04/19 02:30:07;;;;;;;5.83;1.60;;;;;;;5.14;73.22;95875.50;4995770;28;20679;-67
2022/04/19 02:32:34;;;;;;;6.83;2.07;;;;;;;5.13;73.70;95871.22;4995264;28;20206;-67
2022/04/19 02:35:01;;;;;;;3.80;1.80;;;;;;;4.90;73.92;95869.25;4995744;28;20686;-66
2022/04/19 02:37:28;;;;;;;3.00;1.90;;;;;;;4.88;73.80;95863.38;4995637;28;20230;-66
2022/04/19 02:39:55;;;;;;;2.57;1.60;;;;;;;4.82;73.88;95867.41;4995709;28;20275;-66
2022/04/19 02:42:21;;;;;;;1.73;1.40;;;;;;;4.81;73.05;95866.75;4995216;28;20206;-66
2022/04/19 02:44:48;;;;;;;3.90;1.80;;;;;;;4.63;73.69;95868.53;4995528;28;20230;-66
2022/04/19 02:47:15;;;;;;;4.17;1.83;;;;;;;4.76;74.45;95869.81;4995285;28;20199;-67
2022/04/19 02:49:44;;;;;;;4.47;2.20;;;;;;;5.02;74.71;95871.47;4995799;28;20287;-66
2022/04/19 02:52:11;;;;;;;3.60;2.17;;;;;;;4.72;74.40;95867.66;4994816;28;20585;-66
2022/04/19 02:54:38;;;;;;;3.50;2.07;;;;;;;4.70;74.64;95873.03;4995716;28;20867;-66
2022/04/19 02:57:05;;;;;;;4.23;2.00;;;;;;;4.91;74.18;95869.13;4994830;28;20211;-66
2022/04/19 02:59:31;;;;;;;4.03;2.57;;;;;;;4.78;74.67;95872.28;4995280;28;20214;-66
2022/04/19 03:01:58;;;;;;;3.70;2.00;;;;;;;4.82;74.64;95868.38;4995463;28;20630;-66
2022/04/19 03:04:24;;;;;;;3.00;1.90;;;;;;;4.74;74.13;95871.75;4995126;28;20233;-67
2022/04/19 03:06:52;;;;;;;4.20;1.90;;;;;;;4.95;73.73;95860.00;4995570;28;20486;-66
2022/04/19 03:09:18;;;;;;;2.73;1.73;;;;;;;4.76;74.26;95856.75;4994649;28;20690;-66
2022/04/19 03:11:45;;;;;;;3.27;2.13;;;;;;;4.55;75.48;95864.06;4996090;28;20209;-67
2022/04/19 03:14:11;;;;;;;3.23;2.13;;;;;;;4.60;74.86;95864.44;4995543;28;20210;-66
2022/04/19 03:16:38;;;;;;;6.70;2.07;;;;;;;4.64;75.28;95862.38;4995933;28;20210;-66
2022/04/19 03:19:04;;;;;;;4.30;2.00;;;;;;;4.59;75.69;95856.78;4995660;28;20234;-66
2022/04/19 03:21:31;;;;;;;8.47;2.00;;;;;;;4.21;75.63;95857.06;4994963;28;20701;-66
2022/04/19 03:29:38;;;;;;;5.87;2.37;;;;;;;4.59;77.08;95862.78;4921560;28;20236;-66
2022/04/19 03:32:06;;;;;;;4.77;2.20;;;;;;;4.58;76.17;95868.16;4976162;28;20206;-66
2022/04/19 03:34:32;;;;;;;4.60;1.97;;;;;;;4.27;76.40;95864.28;4995187;28;20291;-66
2022/04/19 03:36:58;;;;;;;3.50;1.93;;;;;;;4.29;77.48;95870.19;4995906;28;20214;-66
2022/04/19 03:39:26;;;;;;;2.87;1.77;;;;;;;4.26;78.56;95865.25;4995483;28;20235;-66
2022/04/19 03:41:53;;;;;;;3.50;1.77;;;;;;;4.35;78.50;95861.75;4995086;28;20206;-66
2022/04/19 03:44:21;;;;;;;2.23;1.57;;;;;;;4.54;77.88;95859.00;4994725;28;20257;-66
2022/04/19 03:49:42;;;;;;;6.40;2.50;;;;;;;4.88;77.63;95858.97;4949953;28;20255;-66
2022/04/19 03:52:09;;;;;;;5.93;2.27;;;;;;;4.96;77.85;95851.22;4995405;28;20210;-66
2022/04/19 03:54:37;;;;;;;6.13;2.60;;;;;;;4.91;78.33;95847.41;4995283;28;20222;-66
2022/04/19 03:57:05;;;;;;;4.30;2.03;;;;;;;4.41;79.80;95858.56;4993569;28;20203;-66
2022/04/19 03:59:32;;;;;;;6.80;2.53;;;;;;;4.74;78.29;95861.31;4994162;28;20207;-66
2022/04/19 04:01:59;;;;;;;3.63;2.27;;;;;;;5.05;78.15;95855.53;4995201;28;20218;-66
2022/04/19 04:04:30;;;;;;;5.93;2.57;;;;;;;5.10;77.45;95848.03;4994651;28;20230;-67
2022/04/19 04:06:57;;;;;;;4.40;2.60;;;;;;;4.86;78.03;95850.47;4995783;28;20294;-66
2022/04/19 04:09:23;;;;;;;8.13;2.73;;;;;;;4.93;77.73;95851.50;4995125;28;20237;-67
2022/04/19 04:11:51;;;;;;;6.43;2.60;;;;;;;5.17;76.50;95851.66;4994658;28;20214;-66
2022/04/19 04:14:18;;;;;;;2.97;1.83;;;;;;;5.09;76.04;95850.78;4995321;28;20210;-66
2022/04/19 04:16:44;;;;;;;3.17;1.83;;;;;;;5.03;76.40;95849.63;4995432;28;20679;-66
2022/04/19 04:19:11;;;;;;;4.53;2.40;;;;;;;4.79;76.68;95848.63;4994163;28;20235;-66
2022/04/19 04:21:37;;;;;;;3.53;2.10;;;;;;;4.51;77.96;95854.91;4995381;28;20218;-67
2022/04/19 04:24:04;;;;;;;4.63;2.33;;;;;;;4.81;78.69;95851.88;4994698;28;20217;-66
2022/04/19 04:26:30;;;;;;;3.93;2.30;;;;;;;5.02;78.75;95855.00;4994772;28;20202;-66
2022/04/19 04:28:58;;;;;;;5.63;2.70;;;;;;;4.95;78.87;95853.94;4994983;28;20226;-66
2022/04/19 04:31:25;;;;;;;4.37;2.50;;;;;;;4.99;78.83;95861.34;4995510;28;20207;-66
2022/04/19 04:33:51;;;;;;;5.23;2.77;;;;;;;5.02;79.66;95858.41;4994279;28;20210;-66
2022/04/19 04:36:19;;;;;;;5.37;2.17;;;;;;;4.84;79.34;95862.84;4994877;28;20207;-67
2022/04/19 04:38:45;;;;;;;6.57;2.60;;;;;;;4.96;79.35;95866.88;4994633;28;20230;-66
2022/04/19 04:41:12;;;;;;;5.07;2.40;;;;;;;4.86;79.87;95867.91;4994526;28;20218;-66
2022/04/19 04:43:39;;;;;;;6.87;2.57;;;;;;;5.26;78.88;95868.22;4994249;28;20226;-66
2022/04/19 04:51:44;;;;;;;5.93;2.73;;;;;;;5.50;78.34;95856.13;4958984;28;20209;-66
2022/04/19 04:54:10;;;;;;;4.80;2.60;;;;;;;5.57;77.94;95842.25;4994268;28;20218;-66
2022/04/19 04:56:37;;;;;;;4.27;2.50;;;;;;;5.11;79.71;95849.66;4994576;28;20209;-66
2022/04/19 04:59:03;;;;;;;4.40;2.37;;;;;;;5.63;78.48;95851.28;4991767;28;20225;-67
2022/04/19 05:01:31;;;;;;;8.20;3.17;;;;;;;5.85;78.46;95846.31;4994316;28;21025;-66
2022/04/19 05:03:58;;;;;;;6.73;3.27;;;;;;;5.77;77.84;95855.94;4994020;28;20203;-66
2022/04/19 05:06:24;;;;;;;9.40;2.93;;;;;;;5.94;77.87;95860.25;4994063;28;21029;-66
2022/04/19 05:08:50;;;;;;;9.80;2.80;;;;;;;6.08;77.20;95860.47;4993651;28;20226;-66
2022/04/19 05:11:17;;;;;;;5.27;2.97;;;;;;;6.00;78.13;95865.66;4994234;28;20207;-66
2022/04/19 05:13:44;;;;;;;5.90;2.90;;;;;;;5.69;79.31;95863.69;4993560;28;20217;-66
2022/04/19 05:16:10;;;;;;;5.30;2.53;;;;;;;5.86;78.46;95858.44;4993933;28;21141;-66
2022/04/19 05:18:38;;;;;;;7.07;3.17;;;;;;;6.06;77.88;95871.09;4994319;28;20316;-66
2022/04/19 05:21:05;;;;;;;7.97;2.93;;;;;;;6.04;78.14;95866.19;4992759;28;20568;-66
2022/04/19 05:23:31;;;;;;;6.47;2.53;;;;;;;6.33;77.80;95862.19;4993062;28;20206;-65
2022/04/19 05:25:58;;;;;;;6.17;3.03;;;;;;;6.16;78.05;95857.84;4994166;28;20226;-66
2022/04/19 05:28:24;;;;;;;6.93;3.17;;;;;;;6.23;78.92;95870.16;4993909;28;20292;-66
2022/04/19 05:30:51;;;;;;;10.40;3.80;;;;;;;6.45;77.71;95858.25;4993832;28;20213;-66
2022/04/19 05:33:18;;;;;;;15.03;4.33;;;;;;;6.58;76.30;95856.81;4993755;28;20206;-66
2022/04/19 05:35:45;;;;;;;15.10;5.33;;;;;;;6.62;77.13;95863.38;4993672;28;20202;-66
2022/04/19 05:38:12;;;;;;;14.63;5.53;;;;;;;6.62;77.51;95857.31;4993944;28;20237;-66
2022/04/19 05:40:40;;;;;;;21.50;5.33;;;;;;;7.11;76.09;95847.47;4993737;28;20234;-66
2022/04/19 05:43:06;;;;;;;10.57;4.53;;;;;;;7.16;75.40;95852.25;4993490;28;20206;-66
2022/04/19 05:45:33;;;;;;;11.80;4.63;;;;;;;7.28;73.75;95851.75;4993526;28;20222;-66
2022/04/19 05:48:00;;;;;;;9.53;4.30;;;;;;;7.35;72.04;95848.25;4993472;28;20234;-66
2022/04/19 05:50:27;;;;;;;8.97;4.63;;;;;;;7.51;71.13;95844.78;4994129;28;20213;-66
2022/04/19 05:52:55;;;;;;;14.80;4.33;;;;;;;7.73;70.44;95847.50;4991395;28;20679;-66
2022/04/19 05:55:21;;;;;;;10.47;5.37;;;;;;;7.41;70.47;95839.75;4993690;28;20581;-66
2022/04/19 05:57:48;;;;;;;7.83;4.13;;;;;;;7.49;69.82;95850.19;4990455;28;20223;-66
2022/04/19 06:00:15;;;;;;;10.10;3.90;;;;;;;7.63;69.58;95852.13;4993492;28;20203;-66
2022/04/19 06:05:26;;;;;;;8.30;3.63;;;;;;;7.80;68.50;95848.47;4993466;28;20279;-66
2022/04/19 06:07:54;;;;;;;16.77;4.07;;;;;;;8.00;68.32;95847.06;4993641;28;20258;-66
2022/04/19 06:10:22;;;;;;;8.97;4.20;;;;;;;8.30;67.88;95849.75;4993127;28;20214;-66
2022/04/19 06:12:48;;;;;;;9.37;3.90;;;;;;;7.77;68.24;95851.44;4992842;28;20202;-66
2022/04/19 06:15:15;;;;;;;7.30;3.47;;;;;;;7.73;67.41;95852.75;4993747;28;20233;-66
2022/04/19 06:17:42;;;;;;;7.33;4.33;;;;;;;7.93;67.80;95861.88;4993868;28;20230;-66
2022/04/19 06:20:09;;;;;;;9.57;4.33;;;;;;;8.17;67.31;95862.63;4994006;28;20226;-66
2022/04/19 06:22:36;;;;;;;7.77;4.07;;;;;;;8.16;68.79;95858.34;4995519;28;20259;-66
2022/04/19 06:25:03;;;;;;;11.10;3.97;;;;;;;8.15;68.75;95854.09;4996312;28;21022;-66
2022/04/19 06:27:31;;;;;;;9.37;4.17;;;;;;;8.48;69.02;95852.09;4995285;28;20222;-66
2022/04/19 06:29:58;;;;;;;6.83;3.23;;;;;;;8.11;68.58;95847.53;4996343;28;20207;-66
2022/04/19 06:32:24;;;;;;;9.40;3.53;;;;;;;8.03;69.44;95855.44;4995874;28;20207;-66
2022/04/19 06:34:53;;;;;;;8.43;3.57;;;;;;;8.24;69.62;95844.38;4996509;28;20211;-66
2022/04/19 06:37:19;;;;;;;10.23;4.60;;;;;;;8.55;69.04;95852.06;4996597;28;20214;-66
2022/04/19 06:39:46;;;;;;;10.83;4.80;;;;;;;8.77;67.67;95851.25;4996803;28;20213;-66
2022/04/19 06:42:12;;;;;;;9.33;4.23;;;;;;;8.92;67.41;95838.97;4996467;28;20213;-66
2022/04/19 06:44:40;;;;;;;8.00;3.87;;;;;;;9.25;67.59;95837.72;4995973;28;20207;-66
2022/04/19 06:47:07;;;;;;;11.23;4.40;;;;;;;9.31;67.51;95834.38;4996281;28;20312;-66
2022/04/19 06:49:34;;;;;;;8.63;4.27;;;;;;;9.32;67.12;95841.28;4996480;28;20233;-66
2022/04/19 06:52:05;;;;;;;8.67;4.40;;;;;;;9.51;66.67;95833.66;4995987;28;20207;-66
2022/04/19 06:54:31;;;;;;;8.97;4.60;;;;;;;9.71;66.13;95832.97;4995583;28;20213;-66
2022/04/19 06:56:58;;;;;;;7.23;3.57;;;;;;;9.62;66.63;95837.66;4997620;28;20210;-66
2022/04/19 06:59:25;;;;;;;11.73;4.07;;;;;;;9.86;65.53;95833.78;4992287;28;20238;-66
2022/04/19 07:01:53;;;;;;;7.60;4.03;;;;;;;10.10;65.76;95828.22;4995962;28;20305;-66
2022/04/19 07:04:20;;;;;;;10.67;4.43;;;;;;;10.06;65.31;95826.97;4995850;28;20636;-66
2022/04/19 07:06:46;;;;;;;12.60;4.27;;;;;;;10.14;65.21;95821.59;4995804;28;20229;-66
2022/04/19 07:09:13;;;;;;;10.50;4.23;;;;;;;10.34;65.70;95820.03;4995364;28;20237;-66
2022/04/19 07:11:39;;;;;;;14.20;4.17;;;;;;;10.55;63.92;95826.16;4995918;28;20234;-66
2022/04/19 07:14:06;;;;;;;9.63;3.90;;;;;;;10.74;62.65;95814.97;4995311;28;20211;-66
2022/04/19 07:16:33;;;;;;;9.30;4.50;;;;;;;10.72;62.67;95816.19;4996524;28;20213;-66
2022/04/19 07:19:01;;;;;;;9.67;3.93;;;;;;;11.25;61.84;95811.16;4996316;28;20253;-66
2022/04/19 07:26:56;;;;;;;11.30;4.33;;;;;;;11.69;58.29;95807.25;4995565;28;20237;-66
2022/04/19 07:29:22;;;;;;;8.63;3.77;;;;;;;11.63;56.75;95819.41;4996156;28;20337;-66
2022/04/19 07:31:51;;;;;;;10.80;4.57;;;;;;;11.85;58.41;95806.94;4995908;28;20206;-66
2022/04/19 07:34:18;;;;;;;7.93;3.70;;;;;;;12.08;55.01;95808.28;4995004;28;20214;-66
2022/04/19 07:36:45;;;;;;;9.20;3.80;;;;;;;11.94;55.72;95808.41;4995615;28;20592;-66
2022/04/19 07:39:13;;;;;;;10.60;4.27;;;;;;;12.28;55.78;95806.53;4996273;28;20246;-66
2022/04/19 07:41:47;;;;;;;13.07;4.17;;;;;;;12.38;55.80;95813.06;4997299;28;20206;-66
2022/04/19 07:44:14;;;;;;;8.43;3.70;;;;;;;12.53;55.47;95813.72;4995452;28;20587;-67
2022/04/19 07:46:42;;;;;;;10.63;4.00;;;;;;;12.60;54.40;95811.09;4996484;28;20226;-67
2022/04/19 07:49:09;;;;;;;9.87;3.80;;;;;;;12.76;54.61;95808.13;4995574;28;20230;-67
2022/04/19 07:51:37;;;;;;;7.43;3.80;;;;;;;13.05;53.70;95808.59;4995660;28;20199;-65
2022/04/19 07:54:03;;;;;;;7.40;3.50;;;;;;;13.14;53.11;95810.03;4994495;28;20693;-67
2022/04/19 07:56:30;;;;;;;6.97;3.57;;;;;;;13.11;53.07;95800.66;4995805;28;20199;-66
2022/04/19 07:58:57;;;;;;;8.00;3.80;;;;;;;13.30;53.31;95799.84;4992267;28;20226;-67
2022/04/19 08:01:24;;;;;;;7.80;3.47;;;;;;;13.37;50.61;95805.94;4995020;28;21084;-67
2022/04/19 08:03:51;;;;;;;8.47;3.70;;;;;;;13.47;51.45;95807.16;4994827;28;20213;-68
2022/04/19 08:06:17;;;;;;;9.52;4.03;;;;;;;13.48;50.29;95803.50;4994860;28;20226;-66
2022/04/19 08:08:45;;;;;;;8.67;4.07;;;;;;;13.61;50.41;95792.91;4994414;28;20227;-68
2022/04/19 08:11:12;;;;;;;9.03;4.07;;;;;;;13.70;50.43;95799.59;4996287;28;20213;-67
2022/04/19 08:13:38;;;;;;;8.90;3.22;;;;;;;13.79;49.90;95802.84;4993864;28;20213;-66
2022/04/19 08:16:05;;;;;;;5.80;3.23;;;;;;;13.93;49.93;95797.31;4994450;28;20412;-65
2022/04/19 08:18:32;;;;;;;10.80;3.35;;;;;;;14.23;50.48;95796.63;4994548;28;20250;-67
2022/04/19 08:20:58;;;;;;;9.23;3.35;;;;;;;14.26;52.14;95792.75;4995305;28;20780;-66
2022/04/19 08:23:25;;;;;;;6.47;2.88;;;;;;;14.28;47.22;95794.19;4993961;28;20674;-67
2022/04/19 08:25:53;;;;;;;6.28;2.80;;;;;;;14.46;46.76;95788.16;4994328;28;20233;-67
2022/04/19 08:28:20;;;;;;;7.13;3.03;;;;;;;14.65;48.89;95788.09;4992203;28;20226;-66
2022/04/19 08:30:46;;;;;;;5.57;2.40;;;;;;;14.70;44.81;95783.75;4990140;28;20384;-66
2022/04/19 08:33:13;;;;;;;6.72;3.05;;;;;;;14.66;44.77;95787.88;4993186;28;20206;-67
2022/04/19 08:35:39;;;;;;;7.80;3.05;;;;;;;14.65;45.16;95775.63;4994066;28;20206;-66
2022/04/19 08:38:07;;;;;;;5.38;2.67;;;;;;;14.96;45.44;95778.28;4993756;28;20238;-67
2022/04/19 08:40:34;;;;;;;4.03;2.28;;;;;;;15.13;44.46;95776.72;4993133;28;20674;-66
2022/04/19 08:43:02;;;;;;;6.65;2.88;;;;;;;15.20;44.24;95774.84;4993378;28;20223;-66
2022/04/19 08:45:28;;;;;;;6.20;2.97;;;;;;;15.11;44.55;95770.84;4992699;28;20210;-67
2022/04/19 08:47:57;;;;;;;6.97;3.08;;;;;;;15.07;49.63;95777.59;4993068;28;20714;-66
2022/04/19 08:50:23;;;;;;;6.47;2.47;;;;;;;15.16;45.96;95770.19;4993365;28;20671;-65
2022/04/19 08:57:29;;;;;;;4.68;2.47;;;;;;;15.26;45.40;95769.53;4992926;28;20218;-66
2022/04/19 08:58:22;;;;;;;6.03;2.92;;;;;;;15.45;44.93;95765.88;4993350;28;20237;-65
2022/04/19 09:00:49;;;;;;;5.43;2.80;;;;;;;15.01;43.98;95756.44;4993528;28;20209;-67
2022/04/19 09:03:16;;;;;;;6.35;2.63;;;;;;;15.40;45.09;95762.25;4992616;28;20233;-66
2022/04/19 09:05:50;;;;;;;8.98;2.75;;;;;;;15.62;42.38;95756.31;4993833;28;20207;-65
2022/04/19 09:08:17;;;;;;;6.07;3.03;;;;;;;15.57;44.08;95766.00;4993049;28;20275;-66
2022/04/19 09:10:44;;;;;;;5.65;3.00;;;;;;;15.73;43.18;95755.59;4993547;28;20402;-66
2022/04/19 09:13:14;;;;;;;5.22;2.80;;;;;;;16.14;48.45;95755.75;4992595;28;20203;-66
2022/04/19 09:15:43;;;;;;;4.90;2.78;;;;;;;15.77;44.07;95754.13;4994049;28;20210;-66
2022/04/19 09:18:14;;;;;;;4.40;2.40;;;;;;;15.78;42.43;95752.28;4993167;28;20230;-66
2022/04/19 09:20:41;;;;;;;6.32;2.97;;;;;;;15.69;42.35;95754.41;4992737;28;20207;-66
2022/04/19 09:23:10;;;;;;;7.50;3.05;;;;;;;15.92;41.96;95750.09;4992595;28;20229;-67
2022/04/19 09:25:37;;;;;;;6.80;2.72;;;;;;;15.84;43.61;95754.06;4993888;28;20203;-66
2022/04/19 09:28:17;;;;;;;4.00;2.33;;;;;;;16.33;45.75;95750.25;4988986;28;20753;-66
2022/04/19 09:30:48;;;;;;;5.32;2.60;;;;;;;16.23;46.16;95749.09;4992432;28;20230;-66
2022/04/19 09:33:16;;;;;;;6.28;3.00;;;;;;;15.92;44.69;95744.78;4992100;28;20210;-66
2022/04/19 09:35:44;;;;;;;4.80;2.33;;;;;;;16.34;41.08;95751.03;4992951;28;20215;-66
2022/04/19 09:38:12;;;;;;;3.72;2.33;;;;;;;16.54;41.86;95747.09;4992965;28;20250;-66
2022/04/19 09:40:41;;;;;;;5.50;2.60;;;;;;;16.90;39.91;95739.00;4993496;28;20289;-66
2022/04/19 09:43:16;;;;;;;5.03;2.25;;;;;;;16.86;43.13;95737.84;4992276;28;20199;-67
2022/04/19 09:45:50;;;;;;;5.07;2.42;;;;;;;16.71;44.10;95737.44;4992787;28;20704;-66
2022/04/19 09:48:17;;;;;;;5.55;2.50;;;;;;;16.55;40.72;95727.44;4993106;28;20222;-66
2022/04/19 09:50:52;;;;;;;6.05;2.88;;;;;;;16.71;41.66;95734.78;4993064;28;20238;-67
2022/04/19 09:53:20;;;;;;;5.68;2.45;;;;;;;16.73;44.11;95730.06;4991837;28;20206;-67
2022/04/19 09:55:48;;;;;;;4.72;2.40;;;;;;;17.08;39.47;95724.59;4994235;28;20203;-66
2022/04/19 09:58:15;;;;;;;5.28;2.55;;;;;;;16.77;42.31;95715.25;4996353;28;20234;-67
2022/04/19 10:00:43;;;;;;;4.55;2.20;;;;;;;16.92;39.48;95716.44;4996296;28;20207;-66
2022/04/19 10:08:41;;;;;;;4.68;2.63;;;;;;;16.73;39.81;95714.09;4995629;28;20237;-67
2022/04/19 10:11:08;;;;;;;3.75;2.40;;;;;;;17.13;45.73;95706.06;4995867;28;20218;-66
2022/04/19 10:13:38;;;;;;;5.72;2.30;;;;;;;17.16;40.61;95710.13;4993453;28;20210;-65
2022/04/19 10:16:09;;;;;;;5.65;2.40;;;;;;;16.91;40.85;95714.03;4994781;28;20209;-66
2022/04/19 10:18:37;;;;;;;4.80;2.25;;;;;;;17.44;41.23;95712.97;4996636;28;20226;-66
2022/04/19 10:21:08;;;;;;;4.90;2.50;;;;;;;17.29;40.74;95709.94;4994904;28;20326;-66
2022/04/19 10:23:36;;;;;;;5.60;2.30;;;;;;;16.72;40.41;95712.47;4995101;28;20233;-67
2022/04/19 10:26:24;;;;;;;4.55;2.42;;;;;;;16.97;38.28;95715.75;4995785;28;20214;-66
2022/04/19 10:28:52;;;;;;;4.28;2.05;;;;;;;17.10;39.29;95701.19;4992491;28;20223;-67
2022/04/19 10:31:27;;;;;;;3.33;2.17;;;;;;;17.47;41.81;95702.63;4992248;28;20206;-67
2022/04/19 10:33:55;;;;;;;5.55;2.20;;;;;;;17.25;36.97;95704.25;4995047;28;20210;-67
2022/04/19 10:36:24;;;;;;;3.45;1.90;;;;;;;17.12;37.89;95706.31;4995437;28;20217;-67
2022/04/19 10:39:20;;;;;;;3.35;1.67;;;;;;;17.63;37.22;95703.78;4995368;28;20229;-66
2022/04/19 10:41:53;;;;;;;5.18;1.52;;;;;;;17.49;39.96;95699.75;4995844;28;20226;-67
2022/04/19 10:44:31;;;;;;;2.42;1.65;;;;;;;17.80;37.37;95700.19;4994838;28;20210;-67
2022/04/19 10:47:15;;;;;;;7.18;2.40;;;;;;;17.90;37.55;95698.56;4994669;28;20226;-67
2022/04/19 10:49:57;;;;;;;4.53;2.22;;;;;;;18.32;35.65;95691.16;4995863;28;20206;-67
2022/04/19 10:52:49;;;;;;;4.85;2.30;;;;;;;18.39;39.60;95687.31;4994837;28;20263;-66
2022/04/19 10:55:30;;;;;;;6.90;2.80;;;;;;;18.19;38.80;95683.44;4994998;28;20693;-66
2022/04/19 10:58:17;;;;;;;6.30;2.92;;;;;;;17.80;39.19;95690.31;4995115;28;20225;-67
2022/04/19 11:00:50;;;;;;;6.38;2.78;;;;;;;18.15;38.78;95690.25;4994836;28;20266;-67
2022/04/19 11:03:18;;;;;;;4.93;2.25;;;;;;;18.39;36.93;95687.31;4994674;28;20210;-67
2022/04/19 11:05:47;;;;;;;4.90;2.40;;;;;;;18.44;37.75;95674.06;4994924;28;20219;-67
2022/04/19 11:08:38;;;;;;;3.53;1.83;;;;;;;18.17;41.58;95677.50;4994293;28;20230;-66
2022/04/19 11:11:21;;;;;;;4.90;1.80;;;;;;;18.41;39.94;95675.34;4994490;28;20206;-68
2022/04/19 11:14:18;;;;;;;3.75;1.85;;;;;;;18.48;39.97;95664.53;4995024;28;20318;-67
2022/04/19 11:16:45;;;;;;;2.95;1.63;;;;;;;18.45;36.06;95670.34;4995079;28;20203;-68
2022/04/19 11:19:17;;;;;;;2.53;1.30;;;;;;;18.13;33.87;95671.03;4994633;28;20931;-67
2022/04/19 11:21:56;;;;;;;4.47;1.48;;;;;;;18.13;34.05;95660.38;4994978;28;20607;-67
2022/04/19 11:25:00;;;;;;;3.53;1.98;;;;;;;18.99;31.82;95659.81;4994246;28;20294;-68
2022/04/19 11:28:05;;;;;;;2.88;1.50;;;;;;;19.37;35.72;95660.75;4994683;28;20664;-67
2022/04/19 11:30:31;;;;;;;2.90;1.77;;;;;;;19.03;32.74;95652.97;4992381;28;20294;-68
2022/04/19 11:33:00;;;;;;;2.70;1.80;;;;;;;18.92;36.33;95656.53;4993854;28;20214;-67
2022/04/19 11:35:31;;;;;;;3.35;2.10;;;;;;;18.63;35.00;95646.94;4994046;28;20678;-68
2022/04/19 11:38:03;;;;;;;3.85;2.38;;;;;;;18.78;37.56;95654.41;4995172;28;20237;-68
2022/04/19 11:48:48;;;;;;;3.88;1.60;;;;;;;18.95;36.31;95648.00;4995178;28;20229;-68
2022/04/19 11:51:16;;;;;;;1.80;1.15;;;;;;;18.42;34.72;95654.84;4995512;28;20299;-68
2022/04/19 11:53:45;;;;;;;1.25;0.98;;;;;;;18.01;32.97;95651.56;4993299;28;20214;-67
2022/04/19 11:56:12;;;;;;;2.53;1.77;;;;;;;18.62;33.87;95636.50;4994391;28;20206;-68
2022/04/19 11:58:42;;;;;;;4.10;2.22;;;;;;;18.54;36.44;95628.91;4994319;28;20229;-67
2022/04/19 12:01:10;;;;;;;3.28;1.90;;;;;;;19.51;35.44;95635.28;4993904;28;20246;-68
2022/04/19 12:03:39;;;;;;;5.80;1.95;;;;;;;18.80;35.98;95639.78;4992038;28;20203;-68
2022/04/19 12:06:08;;;;;;;3.85;2.33;;;;;;;18.69;34.99;95627.28;4992914;28;20206;-67
2022/04/19 12:08:37;;;;;;;4.93;2.13;;;;;;;18.97;39.19;95632.56;4993580;28;20234;-68
2022/04/19 12:11:07;;;;;;;5.15;2.28;;;;;;;19.78;33.66;95620.97;4993975;28;20256;-68
2022/04/19 12:13:35;;;;;;;4.43;2.30;;;;;;;19.52;34.25;95628.91;4992830;28;20344;-68
2022/04/19 12:16:03;;;;;;;3.67;2.13;;;;;;;19.15;37.38;95621.69;4994431;28;20234;-67
2022/04/19 12:18:34;;;;;;;2.63;1.95;;;;;;;19.17;36.48;95622.22;4992926;28;20238;-67
2022/04/19 12:21:01;;;;;;;3.83;2.00;;;;;;;18.76;36.33;95619.13;4993851;28;20213;-68
2022/04/19 12:23:28;;;;;;;5.78;2.40;;;;;;;19.08;35.38;95629.03;4993658;28;20213;-67